Time;durP1;ratioP1;P1;durP2;ratioP2;P2;SDS_P1;SDS_P2;PMS_P1;PMS_P2;Temp;Humidity;BMP_temperature;BMP_pressure;BME280_temperature;BME280_humidity;BME280_pressure;Samples;Min_cycle;Max_cycle;Signal;HPM_P1;HPM_P2
2023/08/12 00:00:21;;;;;;;2.72;1.75;;;;;;;20.20;46.91;101628.19;5031324;28;20758;-74
2023/08/12 00:02:46;;;;;;;3.92;1.80;;;;;;;20.17;46.96;101623.22;5030850;28;20859;-74
2023/08/12 00:05:12;;;;;;;4.83;2.00;;;;;;;20.16;47.04;101624.25;5031162;28;20386;-74
2023/08/12 00:07:41;;;;;;;4.37;1.73;;;;;;;20.12;47.14;101633.78;5030943;28;20412;-75
2023/08/12 00:10:08;;;;;;;3.63;1.88;;;;;;;20.10;47.29;101638.56;5030775;28;20390;-75
2023/08/12 00:12:38;;;;;;;4.00;2.08;;;;;;;19.97;47.62;101625.97;5030764;28;20390;-75
2023/08/12 00:15:06;;;;;;;3.95;2.00;;;;;;;19.96;47.59;101632.38;5030599;28;20429;-75
2023/08/12 00:17:32;;;;;;;3.47;1.70;;;;;;;19.94;47.51;101629.06;5030329;28;20870;-75
2023/08/12 00:19:57;;;;;;;2.92;1.85;;;;;;;19.86;47.77;101623.88;5030564;28;20481;-75
2023/08/12 00:22:23;;;;;;;3.63;2.00;;;;;;;19.90;47.83;101624.31;5030497;28;20390;-75
2023/08/12 00:24:48;;;;;;;2.97;1.90;;;;;;;19.83;48.01;101624.34;5030531;28;20379;-75
2023/08/12 00:27:14;;;;;;;3.23;1.93;;;;;;;19.78;48.17;101616.88;5030441;28;20387;-75
2023/08/12 00:29:39;;;;;;;2.73;1.73;;;;;;;19.73;48.59;101618.50;5030351;28;20370;-73
2023/08/12 00:32:05;;;;;;;2.85;1.80;;;;;;;19.71;48.31;101620.59;5030396;28;20544;-75
2023/08/12 00:34:31;;;;;;;4.15;1.85;;;;;;;19.70;48.25;101611.69;5030626;28;20444;-75
2023/08/12 00:36:56;;;;;;;3.83;2.07;;;;;;;19.67;48.30;101610.22;5030260;28;20472;-75
2023/08/12 00:39:22;;;;;;;3.30;1.70;;;;;;;19.73;48.30;101621.19;5030056;28;20444;-75
2023/08/12 00:41:48;;;;;;;2.97;1.80;;;;;;;19.82;48.10;101615.41;5030175;28;20378;-75
2023/08/12 00:44:13;;;;;;;3.53;1.75;;;;;;;19.84;47.92;101616.06;5030409;28;20378;-75
2023/08/12 00:46:41;;;;;;;3.73;1.73;;;;;;;19.80;48.13;101611.28;5029816;28;20847;-75
2023/08/12 00:49:07;;;;;;;5.00;1.90;;;;;;;19.85;47.85;101624.94;5030009;28;20766;-75
2023/08/12 00:51:32;;;;;;;3.03;1.77;;;;;;;19.90;47.71;101622.47;5030061;28;20400;-75
2023/08/12 00:53:59;;;;;;;3.77;1.90;;;;;;;19.90;47.62;101613.53;5030068;28;20459;-75
2023/08/12 00:56:26;;;;;;;3.37;1.90;;;;;;;19.94;47.51;101615.59;5029695;28;20909;-74
2023/08/12 00:58:53;;;;;;;3.78;2.10;;;;;;;19.79;47.68;101615.00;5030182;28;20378;-74
2023/08/12 01:01:19;;;;;;;2.63;1.80;;;;;;;19.73;48.18;101611.28;5029635;28;20916;-74
2023/08/12 01:03:44;;;;;;;2.85;1.98;;;;;;;19.75;47.88;101613.78;5028913;28;20387;-75
2023/08/12 01:06:10;;;;;;;3.10;1.90;;;;;;;19.72;48.06;101608.81;5029872;28;20524;-74
2023/08/12 01:08:35;;;;;;;3.73;2.00;;;;;;;19.65;48.09;101608.81;5029837;28;20425;-75
2023/08/12 01:11:28;;;;;;;3.15;1.80;;;;;;;19.63;48.07;101600.94;5028823;28;20418;-75
2023/08/12 01:14:23;;;;;;;3.47;1.73;;;;;;;19.65;48.09;101604.25;5029557;28;20398;-75
2023/08/12 01:16:56;;;;;;;3.13;1.75;;;;;;;19.68;47.98;101594.94;5029925;28;20414;-74
2023/08/12 01:19:35;;;;;;;3.97;2.33;;;;;;;19.70;48.08;101603.63;5029655;28;20905;-74
2023/08/12 01:22:02;;;;;;;3.00;1.88;;;;;;;19.73;47.89;101605.91;5029664;28;20378;-74
2023/08/12 01:24:35;;;;;;;4.50;1.77;;;;;;;19.72;47.95;101589.97;5029693;28;20854;-74
2023/08/12 01:27:01;;;;;;;3.80;2.17;;;;;;;19.76;47.92;101602.81;5030007;28;20378;-74
2023/08/12 01:29:26;;;;;;;3.93;1.80;;;;;;;19.83;47.55;101598.25;5028376;28;20394;-74
2023/08/12 01:31:58;;;;;;;4.47;2.03;;;;;;;19.92;47.25;101598.03;5029539;28;20410;-74
2023/08/12 01:34:48;;;;;;;3.63;2.00;;;;;;;19.91;47.42;101604.44;5029655;28;20661;-74
2023/08/12 01:37:20;;;;;;;5.90;2.40;;;;;;;19.84;47.57;101596.38;5029602;28;20463;-74
2023/08/12 01:39:46;;;;;;;3.83;1.83;;;;;;;19.77;47.82;101595.56;5029557;28;20701;-74
2023/08/12 01:42:12;;;;;;;5.90;1.98;;;;;;;19.72;47.89;101598.03;5029678;28;20382;-74
2023/08/12 01:44:38;;;;;;;4.35;2.05;;;;;;;19.74;47.97;101599.50;5030499;28;20700;-74
2023/08/12 01:47:04;;;;;;;4.07;1.98;;;;;;;19.72;48.17;101601.56;5030709;28;20668;-74
2023/08/12 01:49:29;;;;;;;3.60;2.03;;;;;;;19.62;48.14;101593.06;5030442;28;20413;-74
2023/08/12 01:51:55;;;;;;;4.88;1.98;;;;;;;19.59;48.32;101604.25;5031934;28;20466;-74
2023/08/12 01:54:20;;;;;;;3.50;1.97;;;;;;;19.52;48.53;101598.88;5034477;28;20393;-74
2023/08/12 01:56:46;;;;;;;4.53;2.17;;;;;;;19.42;48.84;101607.34;5034613;28;20448;-74
2023/08/12 01:59:11;;;;;;;3.90;1.90;;;;;;;19.29;49.29;101601.97;5030459;28;20378;-74
2023/08/12 02:01:36;;;;;;;3.87;2.17;;;;;;;19.20;49.37;101603.22;5013428;28;20387;-74
2023/08/12 02:04:02;;;;;;;2.57;1.87;;;;;;;19.16;49.75;101610.03;5013375;28;20380;-74
2023/08/12 02:06:27;;;;;;;4.57;2.00;;;;;;;19.15;49.56;101616.44;5013506;28;20458;-74
2023/08/12 02:08:53;;;;;;;4.10;1.95;;;;;;;19.25;49.30;101615.00;5013285;28;20830;-75
2023/08/12 02:11:18;;;;;;;5.43;2.60;;;;;;;19.28;49.11;101611.91;5014287;28;20469;-74
2023/08/12 02:13:44;;;;;;;3.20;2.00;;;;;;;19.30;49.32;101614.38;5017142;28;20477;-75
2023/08/12 02:16:09;;;;;;;3.20;2.00;;;;;;;19.09;49.67;101607.34;5031494;28;20417;-74
2023/08/12 02:18:35;;;;;;;3.90;2.00;;;;;;;18.86;50.48;101613.91;5032561;28;20712;-74
2023/08/12 02:21:00;;;;;;;3.93;2.17;;;;;;;18.88;50.55;101609.16;5032913;28;20519;-74
2023/08/12 02:23:26;;;;;;;3.28;1.98;;;;;;;18.88;50.48;101603.78;5032895;28;20425;-75
2023/08/12 02:25:52;;;;;;;4.47;2.30;;;;;;;18.90;50.43;101615.13;5032849;28;20382;-74
2023/08/12 02:28:18;;;;;;;4.80;2.00;;;;;;;18.79;50.83;101614.88;5032797;28;20524;-75
2023/08/12 02:30:43;;;;;;;2.80;1.80;;;;;;;18.75;50.99;101609.09;5032468;28;20758;-74
2023/08/12 02:33:08;;;;;;;3.20;2.10;;;;;;;18.76;51.00;101613.41;5032689;28;20444;-74
2023/08/12 02:35:34;;;;;;;4.03;2.33;;;;;;;18.72;51.03;101613.00;5032644;28;20398;-74
2023/08/12 02:37:59;;;;;;;4.57;2.20;;;;;;;18.65;51.53;101616.69;5032599;28;20394;-74
2023/08/12 02:40:25;;;;;;;4.00;2.10;;;;;;;18.62;51.44;101620.63;5032607;28;20727;-74
2023/08/12 02:42:50;;;;;;;4.32;2.00;;;;;;;18.68;51.39;101613.63;5032308;28;20390;-74
2023/08/12 02:45:16;;;;;;;3.57;2.10;;;;;;;18.66;51.37;101613.81;5032440;28;20374;-74
2023/08/12 02:47:41;;;;;;;4.95;2.30;;;;;;;18.69;51.19;101617.94;5032414;28;20516;-74
2023/08/12 02:50:07;;;;;;;5.13;2.27;;;;;;;18.73;50.96;101616.53;5032273;28;20403;-74
2023/08/12 02:52:33;;;;;;;3.53;2.00;;;;;;;18.83;50.78;101629.59;5032367;28;20525;-74
2023/08/12 02:54:58;;;;;;;3.93;2.20;;;;;;;18.89;50.56;101632.31;5031958;28;20494;-74
2023/08/12 02:57:24;;;;;;;3.87;2.03;;;;;;;18.92;50.11;101623.00;5032267;28;20378;-74
2023/08/12 02:59:49;;;;;;;3.83;2.00;;;;;;;18.97;50.10;101630.47;5032147;28;20387;-74
2023/08/12 03:02:16;;;;;;;4.40;2.13;;;;;;;18.89;50.06;101626.94;5032116;28;20393;-74
2023/08/12 03:04:41;;;;;;;4.03;2.00;;;;;;;18.93;50.23;101635.41;5032205;28;20477;-74
2023/08/12 03:07:07;;;;;;;5.57;2.15;;;;;;;18.86;50.02;101632.69;5032099;28;20956;-74
2023/08/12 03:09:32;;;;;;;5.60;2.13;;;;;;;18.85;50.25;101627.53;5032192;28;20382;-74
2023/08/12 03:12:01;;;;;;;4.30;2.07;;;;;;;18.88;50.09;101632.50;5032211;28;20397;-74
2023/08/12 03:14:28;;;;;;;4.70;2.10;;;;;;;18.95;49.95;101636.03;5031950;28;20390;-74
2023/08/12 03:16:54;;;;;;;4.85;2.15;;;;;;;18.97;49.70;101635.84;5031867;28;20509;-75
2023/08/12 03:19:19;;;;;;;5.63;2.40;;;;;;;18.98;49.82;101635.63;5031933;28;20521;-74
2023/08/12 03:21:45;;;;;;;3.50;2.30;;;;;;;18.94;49.75;101637.06;5031794;28;20676;-74
2023/08/12 03:24:10;;;;;;;4.80;2.37;;;;;;;18.95;49.82;101636.03;5031626;28;20409;-74
2023/08/12 03:26:36;;;;;;;4.43;2.23;;;;;;;18.94;49.80;101638.94;5031386;28;20464;-73
2023/08/12 03:29:01;;;;;;;6.33;2.60;;;;;;;19.01;49.79;101647.81;5031995;28;20547;-73
2023/08/12 03:31:27;;;;;;;6.22;2.42;;;;;;;19.03;49.64;101640.38;5031611;28;20430;-73
2023/08/12 03:33:52;;;;;;;5.07;2.17;;;;;;;19.08;49.58;101637.94;5032268;28;20724;-74
2023/08/12 03:36:18;;;;;;;4.97;2.20;;;;;;;19.09;49.38;101637.72;5031864;28;20463;-74
2023/08/12 03:38:43;;;;;;;5.23;2.33;;;;;;;19.17;49.15;101639.38;5031586;28;20394;-73
2023/08/12 03:41:08;;;;;;;4.57;2.30;;;;;;;19.20;49.23;101647.03;5031589;28;20393;-73
2023/08/12 03:43:34;;;;;;;5.25;2.20;;;;;;;19.21;49.00;101639.81;5031432;28;20781;-73
2023/08/12 03:45:59;;;;;;;6.27;2.20;;;;;;;19.20;49.07;101640.84;5030439;28;20398;-74
2023/08/12 03:48:25;;;;;;;7.45;2.28;;;;;;;19.19;49.21;101650.75;5031421;28;20441;-74
2023/08/12 03:50:50;;;;;;;5.03;2.27;;;;;;;19.15;49.32;101646.00;5031371;28;20382;-74
2023/08/12 03:53:17;;;;;;;4.63;2.15;;;;;;;19.14;49.32;101655.09;5031001;28;20374;-73
2023/08/12 03:55:42;;;;;;;10.25;2.22;;;;;;;19.18;49.33;101657.19;5031086;28;20409;-73
2023/08/12 03:58:08;;;;;;;5.47;2.20;;;;;;;19.23;49.35;101659.22;5031140;28;20383;-74
2023/08/12 04:00:34;;;;;;;5.67;2.30;;;;;;;19.17;49.38;101655.50;5030021;28;20867;-74
2023/08/12 04:03:00;;;;;;;6.07;2.30;;;;;;;19.21;49.46;101662.16;5030912;28;20382;-75
2023/08/12 04:05:26;;;;;;;3.35;1.90;;;;;;;19.25;49.27;101659.88;5030947;28;20382;-74
2023/08/12 04:07:51;;;;;;;4.88;2.22;;;;;;;19.23;49.46;101660.09;5030868;28;20740;-74
2023/08/12 04:10:17;;;;;;;5.30;1.90;;;;;;;19.26;49.42;101665.03;5030772;28;20379;-74
2023/08/12 04:12:43;;;;;;;6.07;2.10;;;;;;;19.21;49.66;101664.00;5029771;28;20398;-74
2023/08/12 04:15:09;;;;;;;6.50;2.22;;;;;;;19.24;49.64;101666.28;5030259;28;20387;-74
2023/08/12 04:17:34;;;;;;;4.20;2.10;;;;;;;19.24;49.41;101667.09;5030000;28;20378;-74
2023/08/12 04:20:00;;;;;;;4.67;2.23;;;;;;;19.31;49.44;101667.13;5029758;28;20410;-74
2023/08/12 04:22:26;;;;;;;4.93;2.20;;;;;;;19.39;49.38;101675.00;5030350;28;20444;-74
2023/08/12 04:24:51;;;;;;;3.47;2.00;;;;;;;19.40;49.42;101670.44;5030855;28;20398;-74
2023/08/12 04:27:17;;;;;;;3.63;2.00;;;;;;;19.32;49.75;101660.72;5030517;28;20452;-74
2023/08/12 04:29:42;;;;;;;4.27;2.10;;;;;;;19.34;49.79;101671.25;5030514;28;20399;-74
2023/08/12 04:32:08;;;;;;;4.00;2.20;;;;;;;19.33;50.00;101681.19;5030379;28;20472;-73
2023/08/12 04:34:34;;;;;;;3.70;2.13;;;;;;;19.38;49.94;101673.34;5030495;28;20851;-74
2023/08/12 04:36:59;;;;;;;5.00;2.20;;;;;;;19.44;49.91;101675.19;5030160;28;20453;-75
2023/08/12 04:39:25;;;;;;;4.63;2.10;;;;;;;19.40;49.95;101671.25;5030412;28;20382;-75
2023/08/12 04:41:50;;;;;;;6.18;2.17;;;;;;;19.50;49.81;101673.56;5029238;28;20379;-74
2023/08/12 04:44:16;;;;;;;5.90;2.10;;;;;;;19.56;49.73;101679.97;5030352;28;20912;-74
2023/08/12 04:46:41;;;;;;;5.67;2.17;;;;;;;19.67;49.70;101676.66;5030628;28;20793;-74
2023/08/12 04:49:07;;;;;;;3.97;2.00;;;;;;;19.82;49.25;101682.69;5030281;28;20410;-74
2023/08/12 04:51:33;;;;;;;4.33;1.90;;;;;;;19.85;49.43;101678.75;5029933;28;20378;-76
2023/08/12 04:54:01;;;;;;;5.35;2.15;;;;;;;19.80;49.40;101682.06;5030753;28;20382;-75
2023/08/12 04:56:28;;;;;;;4.70;2.30;;;;;;;19.86;49.46;101670.47;5030230;28;20468;-75
2023/08/12 04:58:54;;;;;;;4.88;2.47;;;;;;;20.03;49.23;101673.56;5030243;28;20386;-74
2023/08/12 05:01:20;;;;;;;3.07;2.07;;;;;;;20.11;49.09;101674.38;5030167;28;20456;-75
2023/08/12 05:03:45;;;;;;;5.17;2.40;;;;;;;20.31;48.73;101682.41;5030186;28;20427;-75
2023/08/12 05:06:11;;;;;;;5.23;2.30;;;;;;;20.42;48.37;101679.09;5029730;28;20429;-75
2023/08/12 05:08:36;;;;;;;6.13;2.40;;;;;;;20.47;48.28;101679.25;5030319;28;20382;-75
2023/08/12 05:11:02;;;;;;;5.03;2.50;;;;;;;20.57;48.09;101676.94;5030602;28;20374;-75
2023/08/12 05:13:28;;;;;;;5.00;2.60;;;;;;;20.70;47.93;101677.97;5030370;28;20497;-74
2023/08/12 05:15:53;;;;;;;3.65;2.55;;;;;;;20.89;47.50;101678.94;5029845;28;20406;-74
2023/08/12 05:18:19;;;;;;;5.13;2.20;;;;;;;20.93;47.29;101675.56;5019175;28;20400;-74
2023/08/12 05:20:44;;;;;;;3.70;2.20;;;;;;;20.98;47.03;101670.38;5009194;28;20940;-73
2023/08/12 05:23:10;;;;;;;5.67;2.60;;;;;;;21.18;46.74;101675.63;5009947;28;20419;-75
2023/08/12 05:25:35;;;;;;;4.50;2.70;;;;;;;21.34;46.46;101668.88;5009883;28;20396;-74
2023/08/12 05:28:01;;;;;;;6.25;2.80;;;;;;;21.47;46.06;101672.56;5013673;28;20760;-75
2023/08/12 05:30:26;;;;;;;7.47;2.90;;;;;;;21.63;45.76;101680.13;5017374;28;20425;-75
2023/08/12 05:32:52;;;;;;;5.90;3.13;;;;;;;21.73;45.21;101677.75;5014717;28;20542;-73
2023/08/12 05:35:17;;;;;;;9.40;2.95;;;;;;;21.82;44.97;101677.47;5016616;28;20559;-74
2023/08/12 05:37:43;;;;;;;7.37;2.47;;;;;;;21.89;44.75;101676.34;5015002;28;20757;-73
2023/08/12 05:40:09;;;;;;;4.90;2.78;;;;;;;22.12;44.63;101673.00;5010647;28;20406;-73
2023/08/12 05:42:36;;;;;;;4.32;2.50;;;;;;;22.28;44.46;101684.31;5024642;28;20475;-74
2023/08/12 05:45:02;;;;;;;6.70;2.70;;;;;;;22.40;44.05;101673.56;5024836;28;20481;-73
2023/08/12 05:47:27;;;;;;;8.10;3.45;;;;;;;22.53;43.79;101684.25;5038176;28;20450;-75
2023/08/12 05:49:53;;;;;;;8.75;3.38;;;;;;;22.80;43.47;101687.44;5039105;28;20386;-74
2023/08/12 05:52:18;;;;;;;5.43;2.80;;;;;;;22.64;43.03;101675.38;5041384;28;20800;-73
2023/08/12 05:54:44;;;;;;;3.08;2.22;;;;;;;22.43;43.22;101675.84;5039392;28;20402;-72
2023/08/12 05:57:09;;;;;;;5.50;2.70;;;;;;;22.75;43.49;101676.47;5041599;28;20396;-71
2023/08/12 05:59:35;;;;;;;5.40;2.40;;;;;;;22.88;42.67;101672.78;5043340;28;20377;-74
2023/08/12 06:02:00;;;;;;;6.03;2.70;;;;;;;22.78;42.67;101667.91;5042467;28;20794;-72
2023/08/12 06:04:25;;;;;;;5.07;2.20;;;;;;;22.99;42.42;101671.16;5042778;28;20408;-72
2023/08/12 06:06:51;;;;;;;4.63;1.80;;;;;;;23.01;42.39;101675.31;5043889;28;20442;-72
2023/08/12 06:09:16;;;;;;;4.72;2.17;;;;;;;23.26;42.22;101668.94;5047947;28;20376;-72
2023/08/12 06:11:42;;;;;;;4.37;2.07;;;;;;;23.36;41.59;101669.19;5053081;28;20416;-72
2023/08/12 06:14:07;;;;;;;3.63;1.90;;;;;;;23.36;41.61;101666.50;5053031;28;20368;-73
2023/08/12 06:16:33;;;;;;;3.35;1.70;;;;;;;23.38;41.93;101666.25;5052915;28;20466;-74
2023/08/12 06:19:00;;;;;;;3.00;1.87;;;;;;;23.47;41.52;101672.97;5052647;28;20424;-72
2023/08/12 06:21:25;;;;;;;4.30;2.13;;;;;;;23.78;41.03;101657.47;5052887;28;20404;-72
2023/08/12 06:23:51;;;;;;;5.77;2.10;;;;;;;23.83;40.76;101655.72;5052840;28;20419;-73
2023/08/12 06:26:16;;;;;;;3.67;1.87;;;;;;;23.74;40.36;101659.81;5052782;28;20377;-73
2023/08/12 06:28:42;;;;;;;5.97;2.33;;;;;;;23.83;40.56;101657.63;5052641;28;20373;-73
2023/08/12 06:31:07;;;;;;;4.20;1.90;;;;;;;24.09;39.62;101661.72;5052707;28;20805;-72
2023/08/12 06:33:33;;;;;;;2.67;1.70;;;;;;;23.66;39.65;101661.00;5052523;28;20885;-73
2023/08/12 06:35:58;;;;;;;4.43;1.90;;;;;;;23.88;39.54;101659.59;5052498;28;20400;-73
2023/08/12 06:38:24;;;;;;;5.33;1.97;;;;;;;23.89;39.36;101655.84;5052387;28;20381;-72
2023/08/12 06:40:49;;;;;;;4.43;2.07;;;;;;;23.89;39.53;101659.38;5052833;28;20375;-72
2023/08/12 06:43:15;;;;;;;3.60;1.70;;;;;;;24.19;39.32;101659.22;5052535;28;20832;-72
2023/08/12 06:45:40;;;;;;;5.63;2.07;;;;;;;24.37;39.17;101655.53;5040860;28;20398;-73
2023/08/12 06:48:06;;;;;;;3.73;2.00;;;;;;;24.49;38.84;101657.38;5013457;28;20380;-72
2023/08/12 06:50:33;;;;;;;3.00;1.80;;;;;;;24.50;38.65;101653.63;5027469;28;20378;-72
2023/08/12 06:52:58;;;;;;;6.35;2.45;;;;;;;24.59;38.71;101655.75;5032103;28;20453;-72
2023/08/12 06:55:24;;;;;;;4.63;2.23;;;;;;;24.80;38.34;101659.69;5032320;28;20508;-72
2023/08/12 06:57:49;;;;;;;5.57;1.90;;;;;;;24.67;38.36;101653.72;5031990;28;20448;-73
2023/08/12 07:00:15;;;;;;;3.87;1.90;;;;;;;24.85;38.23;101653.53;5031932;28;20909;-72
2023/08/12 07:02:42;;;;;;;4.20;2.30;;;;;;;25.05;38.30;101649.53;5031620;28;20474;-74
2023/08/12 07:05:08;;;;;;;5.95;3.35;;;;;;;25.29;37.97;101663.84;5031083;28;20371;-72
2023/08/12 07:07:33;;;;;;;10.93;2.72;;;;;;;25.38;37.64;101648.78;5031565;28;20389;-72
2023/08/12 07:09:59;;;;;;;3.73;1.70;;;;;;;25.08;37.41;101654.47;5031837;28;20379;-72
2023/08/12 07:12:24;;;;;;;4.17;1.90;;;;;;;24.81;37.76;101660.50;5031991;28;20386;-72
2023/08/12 07:14:50;;;;;;;5.07;2.00;;;;;;;24.79;37.99;101657.22;5031678;28;20774;-72
2023/08/12 07:17:15;;;;;;;4.83;1.57;;;;;;;24.76;37.50;101652.28;5031031;28;20405;-76
2023/08/12 07:19:41;;;;;;;2.90;1.70;;;;;;;24.86;37.68;101652.47;5031750;28;20428;-73
2023/08/12 07:22:06;;;;;;;3.65;1.85;;;;;;;25.05;37.32;101652.25;5030822;28;20699;-73
2023/08/12 07:24:32;;;;;;;4.13;1.87;;;;;;;25.13;37.08;101655.38;5028501;28;20406;-74
2023/08/12 07:26:57;;;;;;;4.27;2.03;;;;;;;25.38;36.88;101657.75;5012025;28;20384;-72
2023/08/12 07:29:22;;;;;;;4.57;1.97;;;;;;;25.68;36.94;101653.88;5011636;28;20470;-73
2023/08/12 07:31:48;;;;;;;4.10;1.98;;;;;;;25.91;36.42;101649.31;5011163;28;20896;-73
2023/08/12 07:34:14;;;;;;;4.87;2.00;;;;;;;25.73;36.54;101656.69;5020619;28;20465;-73
2023/08/12 07:36:40;;;;;;;3.50;1.92;;;;;;;25.72;36.57;101655.03;5031262;28;20402;-73
2023/08/12 07:39:06;;;;;;;2.72;1.75;;;;;;;25.83;36.59;101652.47;5030668;28;20389;-72
2023/08/12 07:41:32;;;;;;;4.60;2.00;;;;;;;25.77;36.25;101648.84;5031297;28;20374;-73
2023/08/12 07:43:57;;;;;;;4.28;1.95;;;;;;;25.88;36.44;101649.81;5031272;28;20520;-73
2023/08/12 07:46:23;;;;;;;3.70;1.90;;;;;;;26.09;36.60;101646.34;5030816;28;20393;-72
2023/08/12 07:48:48;;;;;;;5.10;2.25;;;;;;;26.40;35.94;101641.28;5030455;28;20382;-72
2023/08/12 07:51:14;;;;;;;5.03;2.40;;;;;;;26.48;35.94;101648.97;5031136;28;20386;-72
2023/08/12 07:53:40;;;;;;;12.00;8.35;;;;;;;26.40;36.03;101638.56;5030423;28;20418;-72
2023/08/12 07:56:05;;;;;;;4.93;2.40;;;;;;;26.59;35.21;101639.03;5025218;28;20417;-73
2023/08/12 07:58:31;;;;;;;5.40;2.40;;;;;;;26.62;35.45;101637.75;5018500;28;20442;-72
2023/08/12 08:00:56;;;;;;;4.88;1.92;;;;;;;26.48;35.37;101643.53;5038675;28;20377;-73
2023/08/12 08:03:22;;;;;;;5.33;2.30;;;;;;;26.61;35.34;101638.81;5029522;28;20429;-72
2023/08/12 08:05:48;;;;;;;3.50;2.10;;;;;;;26.54;35.75;101636.25;5030659;28;20374;-72
2023/08/12 08:08:13;;;;;;;4.03;2.03;;;;;;;26.82;35.82;101643.41;5030871;28;20410;-73
2023/08/12 08:10:39;;;;;;;3.97;2.00;;;;;;;27.03;35.29;101646.34;5031006;28;20421;-72
2023/08/12 08:13:05;;;;;;;3.97;1.92;;;;;;;27.17;35.29;101642.13;5029008;28;20406;-70
2023/08/12 08:15:30;;;;;;;3.80;1.83;;;;;;;26.89;35.11;101641.28;5031072;28;20814;-69
2023/08/12 08:17:56;;;;;;;5.00;1.93;;;;;;;26.95;35.06;101641.34;5031537;28;20462;-70
2023/08/12 08:20:22;;;;;;;3.22;1.92;;;;;;;27.01;35.14;101645.75;5031543;28;20425;-70
2023/08/12 08:22:47;;;;;;;5.13;2.43;;;;;;;27.27;35.24;101636.75;5030955;28;20822;-70
2023/08/12 08:25:13;;;;;;;2.70;1.85;;;;;;;27.32;34.82;101637.91;5031051;28;20394;-70
2023/08/12 08:27:38;;;;;;;3.30;1.90;;;;;;;27.17;35.23;101644.00;5030917;28;20643;-71
2023/08/12 08:30:06;;;;;;;2.90;1.80;;;;;;;27.32;35.04;101632.47;5030862;28;20383;-72
2023/08/12 08:32:31;;;;;;;2.57;1.93;;;;;;;27.22;34.94;101644.03;5030901;28;20418;-70
2023/08/12 08:34:57;;;;;;;3.65;1.90;;;;;;;27.24;34.75;101647.31;5030810;28;20389;-70
2023/08/12 08:37:24;;;;;;;2.65;1.90;;;;;;;27.12;35.29;101635.78;5030858;28;20576;-70
2023/08/12 08:39:50;;;;;;;2.57;2.00;;;;;;;27.42;34.83;101638.81;5030838;28;20409;-70
2023/08/12 08:42:19;;;;;;;2.92;2.05;;;;;;;27.42;34.52;101636.09;5029668;28;20754;-72
2023/08/12 08:44:45;;;;;;;3.30;1.90;;;;;;;27.15;34.94;101638.00;5030471;28;20394;-72
2023/08/12 08:47:14;;;;;;;2.40;1.83;;;;;;;27.16;35.18;101637.75;5030866;28;20843;-71
2023/08/12 08:49:41;;;;;;;3.07;1.90;;;;;;;27.39;35.02;101633.88;5030550;28;20374;-70
2023/08/12 08:52:06;;;;;;;2.80;2.10;;;;;;;27.64;34.57;101629.66;5030571;28;20454;-72
2023/08/12 08:54:32;;;;;;;2.90;2.00;;;;;;;27.89;34.90;101634.44;5030725;28;20383;-72
2023/08/12 08:56:58;;;;;;;2.97;2.07;;;;;;;27.89;34.50;101620.81;5030550;28;20398;-71
2023/08/12 08:59:24;;;;;;;3.55;2.10;;;;;;;27.85;34.98;101623.25;5030357;28;20394;-71
2023/08/12 09:01:51;;;;;;;2.72;2.10;;;;;;;27.91;34.86;101609.69;5029573;28;20398;-71
2023/08/12 09:04:18;;;;;;;3.77;2.03;;;;;;;28.11;35.06;101618.00;5018705;28;20406;-71
2023/08/12 09:06:44;;;;;;;4.53;2.53;;;;;;;27.90;34.31;101608.03;5018785;28;20438;-71
2023/08/12 09:09:14;;;;;;;3.30;2.00;;;;;;;27.79;34.76;101610.72;5015715;28;20438;-71
2023/08/12 09:11:44;;;;;;;2.00;1.70;;;;;;;27.64;35.03;101607.88;5017350;28;20493;-71
2023/08/12 09:14:10;;;;;;;3.08;1.95;;;;;;;27.99;34.67;101606.47;5019847;28;20428;-71
2023/08/12 09:16:36;;;;;;;2.90;1.90;;;;;;;28.09;34.37;101600.25;5027358;28;20406;-71
2023/08/12 09:19:02;;;;;;;3.00;2.25;;;;;;;28.34;34.26;101597.63;5028723;28;20777;-70
2023/08/12 09:21:28;;;;;;;3.07;2.10;;;;;;;28.52;34.35;101600.94;5029663;28;20455;-71
2023/08/12 09:23:54;;;;;;;4.10;2.10;;;;;;;28.38;33.96;101596.00;5029480;28;20374;-71
2023/08/12 09:26:20;;;;;;;5.25;2.10;;;;;;;28.30;34.58;101593.78;5029901;28;20374;-72
2023/08/12 09:28:47;;;;;;;4.37;2.10;;;;;;;28.53;34.40;101597.13;5030386;28;20386;-72
2023/08/12 09:31:27;;;;;;;4.35;2.40;;;;;;;28.50;34.06;101595.72;5030839;28;20406;-70
2023/08/12 09:33:57;;;;;;;3.47;1.80;;;;;;;28.38;34.19;101596.00;5029976;28;20497;-71
2023/08/12 09:36:22;;;;;;;3.42;1.80;;;;;;;28.51;34.51;101591.94;5030742;28;20409;-71
2023/08/12 09:38:48;;;;;;;2.53;2.03;;;;;;;28.53;34.20;101587.06;5031049;28;20382;-71
2023/08/12 09:41:14;;;;;;;3.03;1.90;;;;;;;28.66;34.21;101579.44;5029821;28;20931;-72
2023/08/12 09:43:43;;;;;;;3.67;2.10;;;;;;;28.83;34.14;101588.19;5030871;28;20382;-72
2023/08/12 09:46:15;;;;;;;3.60;2.10;;;;;;;28.69;33.99;101587.09;5030812;28;20796;-71
2023/08/12 09:48:40;;;;;;;3.17;1.88;;;;;;;28.49;34.11;101582.41;5030354;28;20436;-71
2023/08/12 09:51:08;;;;;;;3.57;2.13;;;;;;;28.42;34.49;101583.44;5030636;28;20386;-71
2023/08/12 09:53:34;;;;;;;2.90;2.08;;;;;;;28.72;34.61;101576.47;5030909;28;20914;-71
2023/08/12 09:56:10;;;;;;;3.80;2.00;;;;;;;28.50;34.27;101575.84;5030230;28;20993;-71
2023/08/12 09:58:37;;;;;;;2.67;2.00;;;;;;;28.31;34.45;101579.06;5029671;28;20386;-70
2023/08/12 10:01:05;;;;;;;2.83;2.20;;;;;;;28.39;34.47;101567.63;5030567;28;20451;-71
2023/08/12 10:03:33;;;;;;;6.47;4.72;;;;;;;28.68;34.77;101569.06;5030542;28;20378;-70
2023/08/12 10:06:01;;;;;;;4.30;1.92;;;;;;;28.84;34.22;101570.72;5029689;28;20392;-74
2023/08/12 10:08:28;;;;;;;5.20;2.15;;;;;;;28.79;33.59;101568.81;5030569;28;20374;-71
2023/08/12 10:10:54;;;;;;;3.30;2.10;;;;;;;28.89;33.52;101561.72;5030760;28;20413;-72
2023/08/12 10:13:21;;;;;;;4.63;2.03;;;;;;;29.01;33.18;101569.63;5032114;28;20441;-71
2023/08/12 10:15:47;;;;;;;4.50;2.30;;;;;;;29.16;33.55;101564.19;5034155;28;20406;-71
2023/08/12 10:18:14;;;;;;;2.80;1.97;;;;;;;29.37;33.08;101562.25;5034235;28;20455;-71
2023/08/12 10:20:40;;;;;;;8.57;3.90;;;;;;;29.27;33.38;101565.00;5034146;28;20382;-70
2023/08/12 10:23:07;;;;;;;3.43;2.00;;;;;;;29.36;32.75;101552.41;5034202;28;20394;-72
2023/08/12 10:25:34;;;;;;;2.60;1.90;;;;;;;29.51;32.81;101559.75;5033507;28;20374;-71
2023/08/12 10:28:00;;;;;;;2.55;1.92;;;;;;;29.54;32.46;101556.47;5034200;28;20778;-71
2023/08/12 10:30:34;;;;;;;3.30;2.10;;;;;;;29.36;33.14;101549.69;5033636;28;20370;-72
2023/08/12 10:33:00;;;;;;;4.80;2.10;;;;;;;29.52;32.72;101556.75;5032814;28;20424;-70
2023/08/12 10:35:47;;;;;;;3.05;1.80;;;;;;;29.66;32.34;101547.97;5033306;28;20457;-70
2023/08/12 10:38:20;;;;;;;2.40;2.00;;;;;;;29.67;31.86;101542.22;5031915;28;20464;-70
2023/08/12 10:40:47;;;;;;;3.60;1.80;;;;;;;29.78;31.68;101537.56;5031699;28;20371;-70
2023/08/12 10:43:14;;;;;;;2.30;1.80;;;;;;;29.64;31.74;101540.06;5032104;28;20382;-71
2023/08/12 10:45:52;;;;;;;4.00;1.75;;;;;;;29.33;31.84;101540.16;5032006;28;20757;-70
2023/08/12 10:48:25;;;;;;;2.10;1.75;;;;;;;29.49;32.01;101534.63;5030885;28;20397;-71
2023/08/12 10:50:55;;;;;;;3.67;2.10;;;;;;;29.80;31.85;101538.13;5015116;28;20400;-71
2023/08/12 10:53:29;;;;;;;4.28;2.00;;;;;;;29.96;32.77;101527.09;5015369;28;20441;-71
2023/08/12 10:55:56;;;;;;;4.07;2.10;;;;;;;30.07;31.69;101512.28;5021641;28;20442;-72
2023/08/12 10:58:30;;;;;;;3.83;1.90;;;;;;;29.81;31.66;101519.81;5022055;28;20387;-71
2023/08/12 11:00:57;;;;;;;2.83;2.50;;;;;;;29.90;31.83;101513.47;5028129;28;20380;-71
2023/08/12 11:03:23;;;;;;;2.58;1.92;;;;;;;30.07;31.20;101507.63;5012947;28;20471;-71
2023/08/12 11:05:50;;;;;;;2.33;2.10;;;;;;;30.08;31.64;101514.72;5013080;28;20875;-72
2023/08/12 11:08:16;;;;;;;3.10;1.92;;;;;;;30.03;31.76;101506.56;5025137;28;20462;-72
2023/08/12 11:10:43;;;;;;;3.75;2.10;;;;;;;30.06;31.76;101503.25;5013981;28;20415;-72
2023/08/12 11:13:08;;;;;;;3.13;1.70;;;;;;;29.98;31.06;101511.22;5024189;28;20471;-71
2023/08/12 11:15:46;;;;;;;4.25;2.03;;;;;;;29.89;31.36;101502.78;5012622;28;20422;-71
2023/08/12 11:18:19;;;;;;;6.28;1.95;;;;;;;29.84;31.78;101502.84;5022777;28;20809;-71
2023/08/12 11:20:46;;;;;;;3.23;2.10;;;;;;;30.01;31.86;101511.47;5031803;28;20738;-73